sensor_id;sensor_type;location;lat;lon;timestamp;temperature;humidity
108;DHT22;49;48.530;9.200;2023-05-17T00:01:22;15.10;1.00
108;DHT22;49;48.530;9.200;2023-05-17T00:03:49;15.50;1.00
108;DHT22;49;48.530;9.200;2023-05-17T00:06:18;15.90;1.00
108;DHT22;49;48.530;9.200;2023-05-17T00:08:45;15.90;1.00
108;DHT22;49;48.530;9.200;2023-05-17T00:11:13;15.60;1.00
108;DHT22;49;48.530;9.200;2023-05-17T00:13:41;15.20;1.00
108;DHT22;49;48.530;9.200;2023-05-17T00:16:08;15.40;1.00
108;DHT22;49;48.530;9.200;2023-05-17T00:21:04;15.50;1.00
108;DHT22;49;48.530;9.200;2023-05-17T00:23:31;15.40;1.00
108;DHT22;49;48.530;9.200;2023-05-17T00:25:58;15.00;1.00
108;DHT22;49;48.530;9.200;2023-05-17T00:28:26;14.70;1.00
108;DHT22;49;48.530;9.200;2023-05-17T00:30:53;14.50;1.00
108;DHT22;49;48.530;9.200;2023-05-17T00:33:20;14.40;1.00
108;DHT22;49;48.530;9.200;2023-05-17T00:35:47;14.40;1.00
108;DHT22;49;48.530;9.200;2023-05-17T00:38:14;14.90;1.00
108;DHT22;49;48.530;9.200;2023-05-17T00:40:40;15.20;1.00
108;DHT22;49;48.530;9.200;2023-05-17T00:43:07;15.20;1.00
108;DHT22;49;48.530;9.200;2023-05-17T00:45:36;15.00;1.00
108;DHT22;49;48.530;9.200;2023-05-17T00:48:03;14.80;1.00
108;DHT22;49;48.530;9.200;2023-05-17T00:50:30;14.90;1.00
108;DHT22;49;48.530;9.200;2023-05-17T00:52:57;14.80;1.00
108;DHT22;49;48.530;9.200;2023-05-17T00:55:25;15.00;1.00
108;DHT22;49;48.530;9.200;2023-05-17T00:57:53;15.30;1.00
108;DHT22;49;48.530;9.200;2023-05-17T01:00:20;15.50;1.00
108;DHT22;49;48.530;9.200;2023-05-17T01:02:48;15.40;1.00
108;DHT22;49;48.530;9.200;2023-05-17T01:05:16;15.40;1.00
108;DHT22;49;48.530;9.200;2023-05-17T01:07:43;15.50;1.00
108;DHT22;49;48.530;9.200;2023-05-17T01:10:10;15.30;1.00
108;DHT22;49;48.530;9.200;2023-05-17T01:12:49;15.00;1.00
108;DHT22;49;48.530;9.200;2023-05-17T01:15:21;15.00;1.00
108;DHT22;49;48.530;9.200;2023-05-17T01:17:56;15.20;1.00
108;DHT22;49;48.530;9.200;2023-05-17T01:20:30;15.50;1.00
108;DHT22;49;48.530;9.200;2023-05-17T01:23:12;15.80;1.00
108;DHT22;49;48.530;9.200;2023-05-17T01:25:53;15.80;1.00
108;DHT22;49;48.530;9.200;2023-05-17T01:28:25;15.30;1.00
108;DHT22;49;48.530;9.200;2023-05-17T01:30:53;15.70;1.00
108;DHT22;49;48.530;9.200;2023-05-17T01:33:21;15.60;1.00
108;DHT22;49;48.530;9.200;2023-05-17T01:35:48;15.80;1.00
108;DHT22;49;48.530;9.200;2023-05-17T01:38:15;16.00;1.00
108;DHT22;49;48.530;9.200;2023-05-17T01:40:51;15.90;1.00
108;DHT22;49;48.530;9.200;2023-05-17T01:45:58;15.90;1.00
108;DHT22;49;48.530;9.200;2023-05-17T01:48:33;16.10;1.00
108;DHT22;49;48.530;9.200;2023-05-17T01:51:01;16.00;1.00
108;DHT22;49;48.530;9.200;2023-05-17T01:53:32;16.00;1.00
108;DHT22;49;48.530;9.200;2023-05-17T01:56:06;15.90;1.00
108;DHT22;49;48.530;9.200;2023-05-17T01:58:39;15.90;1.00
108;DHT22;49;48.530;9.200;2023-05-17T02:01:13;16.00;1.00
108;DHT22;49;48.530;9.200;2023-05-17T02:03:40;16.20;1.00
108;DHT22;49;48.530;9.200;2023-05-17T02:06:07;16.10;1.00
108;DHT22;49;48.530;9.200;2023-05-17T02:08:34;15.90;1.00
108;DHT22;49;48.530;9.200;2023-05-17T02:11:01;15.90;1.00
108;DHT22;49;48.530;9.200;2023-05-17T02:16:01;15.60;1.00
108;DHT22;49;48.530;9.200;2023-05-17T02:18:29;15.60;1.00
108;DHT22;49;48.530;9.200;2023-05-17T02:20:57;15.30;1.00
108;DHT22;49;48.530;9.200;2023-05-17T02:23:24;15.40;1.00
108;DHT22;49;48.530;9.200;2023-05-17T02:25:51;15.10;1.00
108;DHT22;49;48.530;9.200;2023-05-17T02:28:17;14.80;1.00
108;DHT22;49;48.530;9.200;2023-05-17T02:30:44;14.50;1.00
108;DHT22;49;48.530;9.200;2023-05-17T02:33:11;14.20;1.00
108;DHT22;49;48.530;9.200;2023-05-17T02:35:39;13.70;1.00
108;DHT22;49;48.530;9.200;2023-05-17T02:38:06;13.70;1.00
108;DHT22;49;48.530;9.200;2023-05-17T02:40:33;13.70;1.00
108;DHT22;49;48.530;9.200;2023-05-17T02:45:29;14.40;1.00
108;DHT22;49;48.530;9.200;2023-05-17T02:50:23;14.60;1.00
108;DHT22;49;48.530;9.200;2023-05-17T02:52:52;14.50;1.00
108;DHT22;49;48.530;9.200;2023-05-17T02:55:19;14.60;1.00
108;DHT22;49;48.530;9.200;2023-05-17T02:57:46;14.20;1.00
108;DHT22;49;48.530;9.200;2023-05-17T03:02:40;14.40;1.00
108;DHT22;49;48.530;9.200;2023-05-17T03:05:07;14.60;1.00
108;DHT22;49;48.530;9.200;2023-05-17T03:07:35;14.60;1.00
108;DHT22;49;48.530;9.200;2023-05-17T03:12:31;14.10;1.00
108;DHT22;49;48.530;9.200;2023-05-17T03:14:57;13.90;1.00
108;DHT22;49;48.530;9.200;2023-05-17T03:17:24;13.90;1.00
108;DHT22;49;48.530;9.200;2023-05-17T03:19:51;13.80;1.00
108;DHT22;49;48.530;9.200;2023-05-17T03:22:18;14.00;1.00
108;DHT22;49;48.530;9.200;2023-05-17T03:24:45;14.50;1.00
108;DHT22;49;48.530;9.200;2023-05-17T03:27:12;14.10;1.00
108;DHT22;49;48.530;9.200;2023-05-17T03:29:40;13.80;1.00
108;DHT22;49;48.530;9.200;2023-05-17T03:32:07;14.00;1.00
108;DHT22;49;48.530;9.200;2023-05-17T03:34:34;14.10;1.00
108;DHT22;49;48.530;9.200;2023-05-17T03:39:29;13.70;1.00
108;DHT22;49;48.530;9.200;2023-05-17T03:41:56;13.10;1.00
108;DHT22;49;48.530;9.200;2023-05-17T03:44:23;13.40;1.00
108;DHT22;49;48.530;9.200;2023-05-17T03:46:51;13.60;1.00
108;DHT22;49;48.530;9.200;2023-05-17T03:49:18;13.60;1.00
108;DHT22;49;48.530;9.200;2023-05-17T03:51:45;13.50;1.00
108;DHT22;49;48.530;9.200;2023-05-17T03:54:12;13.40;1.00
108;DHT22;49;48.530;9.200;2023-05-17T03:56:39;13.40;1.00
108;DHT22;49;48.530;9.200;2023-05-17T03:59:11;13.20;1.00
108;DHT22;49;48.530;9.200;2023-05-17T04:01:38;13.10;1.00
108;DHT22;49;48.530;9.200;2023-05-17T04:04:07;13.30;1.00
108;DHT22;49;48.530;9.200;2023-05-17T04:06:34;12.90;1.00
108;DHT22;49;48.530;9.200;2023-05-17T04:09:01;12.90;1.00
108;DHT22;49;48.530;9.200;2023-05-17T04:11:29;12.80;1.00
108;DHT22;49;48.530;9.200;2023-05-17T04:13:57;12.90;1.00
108;DHT22;49;48.530;9.200;2023-05-17T04:16:24;12.90;1.00
108;DHT22;49;48.530;9.200;2023-05-17T04:18:52;13.10;1.00
108;DHT22;49;48.530;9.200;2023-05-17T04:21:20;12.90;1.00
108;DHT22;49;48.530;9.200;2023-05-17T04:23:47;13.00;1.00
108;DHT22;49;48.530;9.200;2023-05-17T04:31:12;13.10;1.00
108;DHT22;49;48.530;9.200;2023-05-17T04:33:39;13.60;1.00
108;DHT22;49;48.530;9.200;2023-05-17T04:38:37;13.80;1.00
108;DHT22;49;48.530;9.200;2023-05-17T04:41:05;14.00;1.00
108;DHT22;49;48.530;9.200;2023-05-17T04:43:34;13.90;1.00
108;DHT22;49;48.530;9.200;2023-05-17T04:46:01;14.00;1.00
108;DHT22;49;48.530;9.200;2023-05-17T04:48:30;14.10;1.00
108;DHT22;49;48.530;9.200;2023-05-17T04:50:59;14.10;1.00
108;DHT22;49;48.530;9.200;2023-05-17T04:53:28;14.00;1.00
108;DHT22;49;48.530;9.200;2023-05-17T04:55:57;14.10;1.00
108;DHT22;49;48.530;9.200;2023-05-17T04:58:25;14.00;1.00
108;DHT22;49;48.530;9.200;2023-05-17T05:00:51;14.00;1.00
108;DHT22;49;48.530;9.200;2023-05-17T05:03:18;14.00;1.00
108;DHT22;49;48.530;9.200;2023-05-17T05:05:45;14.00;1.00
108;DHT22;49;48.530;9.200;2023-05-17T05:10:40;13.10;1.00
108;DHT22;49;48.530;9.200;2023-05-17T05:13:08;13.40;1.00
108;DHT22;49;48.530;9.200;2023-05-17T05:15:35;13.70;1.00
108;DHT22;49;48.530;9.200;2023-05-17T05:18:02;13.50;1.00
108;DHT22;49;48.530;9.200;2023-05-17T05:20:30;13.90;1.00
108;DHT22;49;48.530;9.200;2023-05-17T05:22:57;14.20;1.00
108;DHT22;49;48.530;9.200;2023-05-17T05:30:27;14.60;1.00
108;DHT22;49;48.530;9.200;2023-05-17T05:32:54;14.80;1.00
108;DHT22;49;48.530;9.200;2023-05-17T05:37:51;16.00;1.00
108;DHT22;49;48.530;9.200;2023-05-17T05:40:19;17.60;1.00
108;DHT22;49;48.530;9.200;2023-05-17T05:45:14;19.60;1.00
108;DHT22;49;48.530;9.200;2023-05-17T05:47:42;20.00;1.00
108;DHT22;49;48.530;9.200;2023-05-17T05:50:09;20.40;1.00
108;DHT22;49;48.530;9.200;2023-05-17T05:52:36;20.80;1.00
108;DHT22;49;48.530;9.200;2023-05-17T05:55:04;21.30;1.00
108;DHT22;49;48.530;9.200;2023-05-17T05:57:31;21.90;1.00
108;DHT22;49;48.530;9.200;2023-05-17T05:59:58;23.10;1.00
108;DHT22;49;48.530;9.200;2023-05-17T06:02:25;22.90;1.00
108;DHT22;49;48.530;9.200;2023-05-17T06:04:54;23.50;1.00
108;DHT22;49;48.530;9.200;2023-05-17T06:07:21;24.10;1.00
108;DHT22;49;48.530;9.200;2023-05-17T06:09:48;24.40;1.00
108;DHT22;49;48.530;9.200;2023-05-17T06:12:14;24.60;1.00
108;DHT22;49;48.530;9.200;2023-05-17T06:14:42;24.60;1.00
108;DHT22;49;48.530;9.200;2023-05-17T06:17:09;25.30;1.00
108;DHT22;49;48.530;9.200;2023-05-17T06:19:36;25.80;1.00
108;DHT22;49;48.530;9.200;2023-05-17T06:22:04;25.00;1.00
108;DHT22;49;48.530;9.200;2023-05-17T06:24:31;24.50;1.00
108;DHT22;49;48.530;9.200;2023-05-17T06:26:58;25.10;1.00
108;DHT22;49;48.530;9.200;2023-05-17T06:29:25;25.30;1.00
108;DHT22;49;48.530;9.200;2023-05-17T06:31:52;26.20;1.00
108;DHT22;49;48.530;9.200;2023-05-17T06:34:20;27.10;1.00
108;DHT22;49;48.530;9.200;2023-05-17T06:36:47;27.00;1.00
108;DHT22;49;48.530;9.200;2023-05-17T06:39:16;27.10;1.00
108;DHT22;49;48.530;9.200;2023-05-17T06:41:43;27.20;1.00
108;DHT22;49;48.530;9.200;2023-05-17T06:44:09;26.80;1.00
108;DHT22;49;48.530;9.200;2023-05-17T06:46:36;26.60;1.00
108;DHT22;49;48.530;9.200;2023-05-17T06:51:32;24.50;1.00
108;DHT22;49;48.530;9.200;2023-05-17T06:53:59;24.50;1.00
108;DHT22;49;48.530;9.200;2023-05-17T06:56:28;25.00;1.00
108;DHT22;49;48.530;9.200;2023-05-17T06:58:54;24.90;1.00
108;DHT22;49;48.530;9.200;2023-05-17T07:01:21;26.10;1.00
108;DHT22;49;48.530;9.200;2023-05-17T07:03:49;25.10;1.00
108;DHT22;49;48.530;9.200;2023-05-17T07:06:16;25.60;1.00
108;DHT22;49;48.530;9.200;2023-05-17T07:08:43;25.90;1.00
108;DHT22;49;48.530;9.200;2023-05-17T07:11:11;25.60;1.00
108;DHT22;49;48.530;9.200;2023-05-17T07:13:40;25.20;1.00
108;DHT22;49;48.530;9.200;2023-05-17T07:16:07;25.30;1.00
108;DHT22;49;48.530;9.200;2023-05-17T07:18:34;24.90;1.00
108;DHT22;49;48.530;9.200;2023-05-17T07:21:01;25.80;1.00
108;DHT22;49;48.530;9.200;2023-05-17T07:23:28;24.90;1.00
108;DHT22;49;48.530;9.200;2023-05-17T07:25:54;23.80;1.00
108;DHT22;49;48.530;9.200;2023-05-17T07:28:21;22.90;1.00
108;DHT22;49;48.530;9.200;2023-05-17T07:30:49;20.30;1.00
108;DHT22;49;48.530;9.200;2023-05-17T07:33:17;19.40;1.00
108;DHT22;49;48.530;9.200;2023-05-17T07:38:17;20.50;1.00
108;DHT22;49;48.530;9.200;2023-05-17T07:40:44;21.40;1.00
108;DHT22;49;48.530;9.200;2023-05-17T07:43:11;22.30;1.00
108;DHT22;49;48.530;9.200;2023-05-17T07:45:38;20.90;1.00
108;DHT22;49;48.530;9.200;2023-05-17T07:48:06;20.80;1.00
108;DHT22;49;48.530;9.200;2023-05-17T07:55:35;22.20;1.00
108;DHT22;49;48.530;9.200;2023-05-17T08:00:30;22.70;1.00
108;DHT22;49;48.530;9.200;2023-05-17T08:02:57;22.90;1.00
108;DHT22;49;48.530;9.200;2023-05-17T08:05:26;23.30;1.00
108;DHT22;49;48.530;9.200;2023-05-17T08:07:52;23.70;1.00
108;DHT22;49;48.530;9.200;2023-05-17T08:12:47;22.10;1.00
108;DHT22;49;48.530;9.200;2023-05-17T08:17:46;20.60;1.00
108;DHT22;49;48.530;9.200;2023-05-17T08:22:44;19.80;1.00
108;DHT22;49;48.530;9.200;2023-05-17T08:27:40;18.10;1.00
108;DHT22;49;48.530;9.200;2023-05-17T08:30:08;17.90;1.00
108;DHT22;49;48.530;9.200;2023-05-17T08:32:35;17.70;1.00
108;DHT22;49;48.530;9.200;2023-05-17T08:35:01;17.00;1.00
108;DHT22;49;48.530;9.200;2023-05-17T08:37:28;16.30;1.00
108;DHT22;49;48.530;9.200;2023-05-17T08:39:57;16.20;1.00
108;DHT22;49;48.530;9.200;2023-05-17T08:44:52;15.90;1.00
108;DHT22;49;48.530;9.200;2023-05-17T08:49:54;15.70;1.00
108;DHT22;49;48.530;9.200;2023-05-17T08:52:25;16.40;1.00
108;DHT22;49;48.530;9.200;2023-05-17T08:54:53;16.90;1.00
108;DHT22;49;48.530;9.200;2023-05-17T09:04:49;16.70;1.00
108;DHT22;49;48.530;9.200;2023-05-17T09:07:20;17.60;1.00
108;DHT22;49;48.530;9.200;2023-05-17T09:14:44;16.20;1.00
108;DHT22;49;48.530;9.200;2023-05-17T09:17:13;16.80;1.00
108;DHT22;49;48.530;9.200;2023-05-17T09:22:13;17.20;1.00
108;DHT22;49;48.530;9.200;2023-05-17T09:27:14;16.80;1.00
108;DHT22;49;48.530;9.200;2023-05-17T09:34:48;16.60;1.00
108;DHT22;49;48.530;9.200;2023-05-17T09:37:18;16.60;1.00
108;DHT22;49;48.530;9.200;2023-05-17T09:44:50;18.00;1.00
108;DHT22;49;48.530;9.200;2023-05-17T09:49:48;18.50;1.00
108;DHT22;49;48.530;9.200;2023-05-17T10:19:57;16.20;1.00
108;DHT22;49;48.530;9.200;2023-05-17T10:27:22;15.90;1.00
108;DHT22;49;48.530;9.200;2023-05-17T10:34:47;16.80;1.00
108;DHT22;49;48.530;9.200;2023-05-17T10:37:18;17.40;1.00
108;DHT22;49;48.530;9.200;2023-05-17T10:42:18;16.30;1.00
108;DHT22;49;48.530;9.200;2023-05-17T10:57:18;16.60;1.00
108;DHT22;49;48.530;9.200;2023-05-17T11:02:22;16.50;1.00
108;DHT22;49;48.530;9.200;2023-05-17T11:04:50;17.10;1.00
108;DHT22;49;48.530;9.200;2023-05-17T11:07:26;17.20;1.00
108;DHT22;49;48.530;9.200;2023-05-17T11:17:20;15.90;1.00
108;DHT22;49;48.530;9.200;2023-05-17T11:22:15;16.70;1.00
108;DHT22;49;48.530;9.200;2023-05-17T11:24:44;16.80;1.00
108;DHT22;49;48.530;9.200;2023-05-17T11:32:10;16.40;1.00
108;DHT22;49;48.530;9.200;2023-05-17T11:39:36;16.40;1.00
108;DHT22;49;48.530;9.200;2023-05-17T11:44:32;16.50;1.00
108;DHT22;49;48.530;9.200;2023-05-17T11:47:01;16.80;1.00
108;DHT22;49;48.530;9.200;2023-05-17T11:54:26;17.40;1.00
108;DHT22;49;48.530;9.200;2023-05-17T11:59:22;18.20;1.00
108;DHT22;49;48.530;9.200;2023-05-17T12:01:49;18.00;1.00
108;DHT22;49;48.530;9.200;2023-05-17T12:04:23;17.30;1.00
108;DHT22;49;48.530;9.200;2023-05-17T12:06:50;16.70;1.00
108;DHT22;49;48.530;9.200;2023-05-17T12:09:18;16.20;1.00
108;DHT22;49;48.530;9.200;2023-05-17T12:11:46;16.10;1.00
108;DHT22;49;48.530;9.200;2023-05-17T12:16:44;16.40;1.00
108;DHT22;49;48.530;9.200;2023-05-17T12:19:16;16.80;1.00
108;DHT22;49;48.530;9.200;2023-05-17T12:24:12;17.00;1.00
108;DHT22;49;48.530;9.200;2023-05-17T12:29:09;17.10;1.00
108;DHT22;49;48.530;9.200;2023-05-17T12:31:39;17.00;1.00
108;DHT22;49;48.530;9.200;2023-05-17T12:34:08;17.20;1.00
108;DHT22;49;48.530;9.200;2023-05-17T12:39:05;17.40;1.00
108;DHT22;49;48.530;9.200;2023-05-17T12:41:34;17.50;1.00
108;DHT22;49;48.530;9.200;2023-05-17T12:46:31;16.40;1.00
108;DHT22;49;48.530;9.200;2023-05-17T12:51:39;16.50;1.00
108;DHT22;49;48.530;9.200;2023-05-17T12:54:06;16.00;1.00
108;DHT22;49;48.530;9.200;2023-05-17T12:56:33;16.00;1.00
108;DHT22;49;48.530;9.200;2023-05-17T12:59:05;15.70;1.00
108;DHT22;49;48.530;9.200;2023-05-17T13:01:33;15.70;1.00
108;DHT22;49;48.530;9.200;2023-05-17T13:04:00;16.00;1.00
108;DHT22;49;48.530;9.200;2023-05-17T13:06:29;16.00;1.00
108;DHT22;49;48.530;9.200;2023-05-17T13:11:37;16.60;1.00
108;DHT22;49;48.530;9.200;2023-05-17T13:14:06;16.80;1.00
108;DHT22;49;48.530;9.200;2023-05-17T13:16:35;16.60;1.00
108;DHT22;49;48.530;9.200;2023-05-17T13:19:11;16.60;1.00
108;DHT22;49;48.530;9.200;2023-05-17T13:21:40;15.90;1.00
108;DHT22;49;48.530;9.200;2023-05-17T13:29:02;15.90;1.00
108;DHT22;49;48.530;9.200;2023-05-17T13:31:29;15.90;1.00
108;DHT22;49;48.530;9.200;2023-05-17T13:33:56;15.80;1.00
108;DHT22;49;48.530;9.200;2023-05-17T13:36:23;15.60;1.00
108;DHT22;49;48.530;9.200;2023-05-17T13:48:43;15.30;1.00
108;DHT22;49;48.530;9.200;2023-05-17T13:51:10;15.00;1.00
108;DHT22;49;48.530;9.200;2023-05-17T13:53:39;15.40;1.00
108;DHT22;49;48.530;9.200;2023-05-17T13:56:08;15.90;1.00
108;DHT22;49;48.530;9.200;2023-05-17T13:58:38;15.60;1.00
108;DHT22;49;48.530;9.200;2023-05-17T14:03:38;15.70;1.00
108;DHT22;49;48.530;9.200;2023-05-17T14:08:34;16.50;1.00
108;DHT22;49;48.530;9.200;2023-05-17T14:13:29;17.20;1.00
108;DHT22;49;48.530;9.200;2023-05-17T14:18:25;17.70;1.00
108;DHT22;49;48.530;9.200;2023-05-17T14:20:52;17.30;1.00
108;DHT22;49;48.530;9.200;2023-05-17T14:23:19;17.60;1.00
108;DHT22;49;48.530;9.200;2023-05-17T14:25:47;17.30;1.00
108;DHT22;49;48.530;9.200;2023-05-17T14:28:15;16.70;1.00
108;DHT22;49;48.530;9.200;2023-05-17T14:33:10;17.20;1.00
108;DHT22;49;48.530;9.200;2023-05-17T14:40:40;16.80;1.00
108;DHT22;49;48.530;9.200;2023-05-17T14:43:08;16.70;1.00
108;DHT22;49;48.530;9.200;2023-05-17T14:55:40;16.40;1.00
108;DHT22;49;48.530;9.200;2023-05-17T14:58:10;16.20;1.00
108;DHT22;49;48.530;9.200;2023-05-17T15:08:07;16.00;1.00
108;DHT22;49;48.530;9.200;2023-05-17T15:10:36;15.70;1.00
108;DHT22;49;48.530;9.200;2023-05-17T15:15:34;16.10;1.00
108;DHT22;49;48.530;9.200;2023-05-17T15:20:29;16.20;1.00
108;DHT22;49;48.530;9.200;2023-05-17T15:25:24;15.30;1.00
108;DHT22;49;48.530;9.200;2023-05-17T15:30:19;15.10;1.00
108;DHT22;49;48.530;9.200;2023-05-17T15:32:53;15.40;1.00
108;DHT22;49;48.530;9.200;2023-05-17T15:35:21;15.90;1.00
108;DHT22;49;48.530;9.200;2023-05-17T15:37:48;15.80;1.00
108;DHT22;49;48.530;9.200;2023-05-17T15:42:44;15.50;1.00
108;DHT22;49;48.530;9.200;2023-05-17T15:45:11;15.20;1.00
108;DHT22;49;48.530;9.200;2023-05-17T15:47:38;14.90;1.00
108;DHT22;49;48.530;9.200;2023-05-17T15:50:07;14.90;1.00
108;DHT22;49;48.530;9.200;2023-05-17T15:57:35;15.50;1.00
108;DHT22;49;48.530;9.200;2023-05-17T16:00:02;15.40;1.00
108;DHT22;49;48.530;9.200;2023-05-17T16:04:57;15.10;1.00
108;DHT22;49;48.530;9.200;2023-05-17T16:07:25;14.80;1.00
108;DHT22;49;48.530;9.200;2023-05-17T16:09:52;14.90;1.00
108;DHT22;49;48.530;9.200;2023-05-17T16:14:48;15.20;1.00
108;DHT22;49;48.530;9.200;2023-05-17T16:27:20;15.00;1.00
108;DHT22;49;48.530;9.200;2023-05-17T16:34:49;15.50;1.00
108;DHT22;49;48.530;9.200;2023-05-17T16:39:46;15.00;1.00
108;DHT22;49;48.530;9.200;2023-05-17T16:42:14;15.20;1.00
108;DHT22;49;48.530;9.200;2023-05-17T16:44:43;15.20;1.00
108;DHT22;49;48.530;9.200;2023-05-17T16:49:37;15.10;1.00
108;DHT22;49;48.530;9.200;2023-05-17T17:12:15;14.90;1.00
108;DHT22;49;48.530;9.200;2023-05-17T17:14:57;14.50;1.00
108;DHT22;49;48.530;9.200;2023-05-17T17:20:07;15.00;1.00
108;DHT22;49;48.530;9.200;2023-05-17T17:28:37;14.60;1.00
108;DHT22;49;48.530;9.200;2023-05-17T17:43:41;14.30;1.00
108;DHT22;49;48.530;9.200;2023-05-17T17:58:42;14.60;1.00
108;DHT22;49;48.530;9.200;2023-05-17T18:03:55;14.20;1.00
108;DHT22;49;48.530;9.200;2023-05-17T18:06:29;14.10;1.00
108;DHT22;49;48.530;9.200;2023-05-17T18:18:53;14.60;1.00
108;DHT22;49;48.530;9.200;2023-05-17T19:26:37;14.40;1.00
108;DHT22;49;48.530;9.200;2023-05-17T19:29:06;14.50;1.00
108;DHT22;49;48.530;9.200;2023-05-17T19:31:33;14.70;1.00
108;DHT22;49;48.530;9.200;2023-05-17T19:34:00;14.90;1.00
108;DHT22;49;48.530;9.200;2023-05-17T19:36:27;15.00;1.00
108;DHT22;49;48.530;9.200;2023-05-17T19:38:54;15.20;1.00
108;DHT22;49;48.530;9.200;2023-05-17T19:41:21;15.20;1.00
108;DHT22;49;48.530;9.200;2023-05-17T19:43:49;15.30;1.00
108;DHT22;49;48.530;9.200;2023-05-17T19:46:16;15.40;1.00
108;DHT22;49;48.530;9.200;2023-05-17T19:48:43;15.50;1.00
108;DHT22;49;48.530;9.200;2023-05-17T19:51:10;15.50;1.00
108;DHT22;49;48.530;9.200;2023-05-17T19:53:36;15.20;1.00
108;DHT22;49;48.530;9.200;2023-05-17T19:56:04;14.90;1.00
108;DHT22;49;48.530;9.200;2023-05-17T19:58:32;14.70;1.00
108;DHT22;49;48.530;9.200;2023-05-17T20:01:02;14.50;1.00
108;DHT22;49;48.530;9.200;2023-05-17T20:03:28;14.30;1.00
108;DHT22;49;48.530;9.200;2023-05-17T20:05:55;14.30;1.00
108;DHT22;49;48.530;9.200;2023-05-17T20:08:22;14.40;1.00
108;DHT22;49;48.530;9.200;2023-05-17T20:10:49;14.70;1.00
108;DHT22;49;48.530;9.200;2023-05-17T20:13:16;14.90;1.00
108;DHT22;49;48.530;9.200;2023-05-17T20:15:47;15.00;1.00
108;DHT22;49;48.530;9.200;2023-05-17T20:18:15;15.10;1.00
108;DHT22;49;48.530;9.200;2023-05-17T20:20:42;15.10;1.00
108;DHT22;49;48.530;9.200;2023-05-17T20:23:09;15.20;1.00
108;DHT22;49;48.530;9.200;2023-05-17T20:25:37;15.20;1.00
108;DHT22;49;48.530;9.200;2023-05-17T20:28:06;15.00;1.00
108;DHT22;49;48.530;9.200;2023-05-17T20:30:33;14.90;1.00
108;DHT22;49;48.530;9.200;2023-05-17T20:33:00;15.00;1.00
108;DHT22;49;48.530;9.200;2023-05-17T20:35:28;15.10;1.00
108;DHT22;49;48.530;9.200;2023-05-17T20:37:55;15.30;1.00
108;DHT22;49;48.530;9.200;2023-05-17T20:40:22;15.60;1.00
108;DHT22;49;48.530;9.200;2023-05-17T20:42:48;15.80;1.00
108;DHT22;49;48.530;9.200;2023-05-17T20:45:17;16.00;1.00
108;DHT22;49;48.530;9.200;2023-05-17T20:47:44;16.30;1.00
108;DHT22;49;48.530;9.200;2023-05-17T20:50:11;16.50;1.00
108;DHT22;49;48.530;9.200;2023-05-17T20:52:40;16.70;1.00
108;DHT22;49;48.530;9.200;2023-05-17T20:55:08;16.80;1.00
108;DHT22;49;48.530;9.200;2023-05-17T20:57:34;16.90;1.00
108;DHT22;49;48.530;9.200;2023-05-17T21:00:02;16.60;1.00
108;DHT22;49;48.530;9.200;2023-05-17T21:02:30;16.40;1.00
108;DHT22;49;48.530;9.200;2023-05-17T21:04:57;16.20;1.00
108;DHT22;49;48.530;9.200;2023-05-17T21:07:25;16.20;1.00
108;DHT22;49;48.530;9.200;2023-05-17T21:09:55;16.20;1.00
108;DHT22;49;48.530;9.200;2023-05-17T21:12:23;16.20;1.00
108;DHT22;49;48.530;9.200;2023-05-17T21:14:49;16.20;1.00
108;DHT22;49;48.530;9.200;2023-05-17T21:17:16;16.10;1.00
108;DHT22;49;48.530;9.200;2023-05-17T21:19:43;15.50;1.00
108;DHT22;49;48.530;9.200;2023-05-17T21:22:10;15.30;1.00
108;DHT22;49;48.530;9.200;2023-05-17T21:29:47;16.10;1.00
108;DHT22;49;48.530;9.200;2023-05-17T21:34:54;16.20;1.00
108;DHT22;49;48.530;9.200;2023-05-17T21:40:07;15.90;1.00
108;DHT22;49;48.530;9.200;2023-05-17T21:45:16;16.20;1.00
108;DHT22;49;48.530;9.200;2023-05-17T21:47:58;16.10;1.00
108;DHT22;49;48.530;9.200;2023-05-17T21:50:38;16.30;1.00
108;DHT22;49;48.530;9.200;2023-05-17T21:53:20;16.30;1.00
108;DHT22;49;48.530;9.200;2023-05-17T21:56:01;15.90;1.00
108;DHT22;49;48.530;9.200;2023-05-17T21:58:29;15.80;1.00
108;DHT22;49;48.530;9.200;2023-05-17T22:01:10;15.90;1.00
108;DHT22;49;48.530;9.200;2023-05-17T22:03:38;16.00;1.00
108;DHT22;49;48.530;9.200;2023-05-17T22:06:08;16.00;1.00
108;DHT22;49;48.530;9.200;2023-05-17T22:08:35;16.10;1.00
108;DHT22;49;48.530;9.200;2023-05-17T22:11:02;16.00;1.00
108;DHT22;49;48.530;9.200;2023-05-17T22:13:30;15.90;1.00
108;DHT22;49;48.530;9.200;2023-05-17T22:15:57;16.10;1.00
108;DHT22;49;48.530;9.200;2023-05-17T22:18:25;16.10;1.00
108;DHT22;49;48.530;9.200;2023-05-17T22:20:56;16.10;1.00
108;DHT22;49;48.530;9.200;2023-05-17T22:23:23;15.60;1.00
108;DHT22;49;48.530;9.200;2023-05-17T22:25:50;15.10;1.00
108;DHT22;49;48.530;9.200;2023-05-17T22:28:17;14.80;1.00
108;DHT22;49;48.530;9.200;2023-05-17T22:30:44;14.80;1.00
108;DHT22;49;48.530;9.200;2023-05-17T22:33:11;14.80;1.00
108;DHT22;49;48.530;9.200;2023-05-17T22:35:39;14.80;1.00
108;DHT22;49;48.530;9.200;2023-05-17T22:38:06;15.00;1.00
108;DHT22;49;48.530;9.200;2023-05-17T22:40:33;15.20;1.00
108;DHT22;49;48.530;9.200;2023-05-17T22:43:00;15.40;1.00
108;DHT22;49;48.530;9.200;2023-05-17T22:45:27;15.50;1.00
108;DHT22;49;48.530;9.200;2023-05-17T22:47:57;15.10;1.00
108;DHT22;49;48.530;9.200;2023-05-17T22:50:27;14.90;1.00
108;DHT22;49;48.530;9.200;2023-05-17T22:52:56;14.60;1.00
108;DHT22;49;48.530;9.200;2023-05-17T22:55:23;14.90;1.00
108;DHT22;49;48.530;9.200;2023-05-17T22:57:51;15.10;1.00
108;DHT22;49;48.530;9.200;2023-05-17T23:00:18;15.30;1.00
108;DHT22;49;48.530;9.200;2023-05-17T23:02:45;15.30;1.00
108;DHT22;49;48.530;9.200;2023-05-17T23:05:12;15.00;1.00
108;DHT22;49;48.530;9.200;2023-05-17T23:07:39;14.60;1.00
108;DHT22;49;48.530;9.200;2023-05-17T23:10:10;14.30;1.00
108;DHT22;49;48.530;9.200;2023-05-17T23:12:37;14.40;1.00
108;DHT22;49;48.530;9.200;2023-05-17T23:15:06;14.40;1.00
108;DHT22;49;48.530;9.200;2023-05-17T23:17:33;14.40;1.00
108;DHT22;49;48.530;9.200;2023-05-17T23:20:01;15.00;1.00
108;DHT22;49;48.530;9.200;2023-05-17T23:22:32;15.30;1.00
108;DHT22;49;48.530;9.200;2023-05-17T23:24:59;15.10;1.00
108;DHT22;49;48.530;9.200;2023-05-17T23:27:30;14.70;1.00
108;DHT22;49;48.530;9.200;2023-05-17T23:29:57;15.00;1.00
108;DHT22;49;48.530;9.200;2023-05-17T23:32:25;14.90;1.00
108;DHT22;49;48.530;9.200;2023-05-17T23:34:53;14.60;1.00
108;DHT22;49;48.530;9.200;2023-05-17T23:37:22;15.00;1.00
108;DHT22;49;48.530;9.200;2023-05-17T23:39:49;15.10;1.00
108;DHT22;49;48.530;9.200;2023-05-17T23:42:16;15.40;1.00
108;DHT22;49;48.530;9.200;2023-05-17T23:44:46;15.30;1.00
108;DHT22;49;48.530;9.200;2023-05-17T23:47:13;15.00;1.00
108;DHT22;49;48.530;9.200;2023-05-17T23:49:40;15.10;1.00
108;DHT22;49;48.530;9.200;2023-05-17T23:52:07;14.90;1.00
108;DHT22;49;48.530;9.200;2023-05-17T23:54:35;14.60;1.00
108;DHT22;49;48.530;9.200;2023-05-17T23:57:03;14.10;1.00
108;DHT22;49;48.530;9.200;2023-05-17T23:59:29;14.40;1.00
